Time;durP1;ratioP1;P1;durP2;ratioP2;P2;SDS_P1;SDS_P2;PMS_P1;PMS_P2;Temp;Humidity;BMP_temperature;BMP_pressure;BME280_temperature;BME280_humidity;BME280_pressure;Samples;Min_cycle;Max_cycle;Signal;HPM_P1;HPM_P2
2023/05/05 00:01:05;;;;;;;10.15;4.80;;;;;;;;;;4942620;28;94220;-79
2023/05/05 00:03:32;;;;;;;10.07;4.90;;;;;;;;;;4947228;28;92521;-78
2023/05/05 00:05:59;;;;;;;10.20;3.97;;;;;;;;;;4949860;28;93254;-79
2023/05/05 00:08:26;;;;;;;8.43;3.35;;;;;;;;;;4946871;28;94142;-79
2023/05/05 00:10:53;;;;;;;9.32;4.20;;;;;;;;;;4953572;28;92889;-78
2023/05/05 00:13:20;;;;;;;8.38;3.90;;;;;;;;;;4950110;28;93208;-79
2023/05/05 00:15:47;;;;;;;9.70;3.88;;;;;;;;;;4949678;28;93022;-80
2023/05/05 00:18:15;;;;;;;10.77;4.25;;;;;;;;;;4946895;28;95142;-79
2023/05/05 00:20:42;;;;;;;8.82;3.60;;;;;;;;;;4947230;28;94058;-81
2023/05/05 00:23:08;;;;;;;11.80;4.18;;;;;;;;;;4950929;28;92558;-81
2023/05/05 00:25:35;;;;;;;7.82;3.85;;;;;;;;;;4952875;28;94052;-79
2023/05/05 00:28:01;;;;;;;7.22;3.20;;;;;;;;;;4952908;28;93255;-79
2023/05/05 00:30:28;;;;;;;8.10;3.30;;;;;;;;;;4950236;28;93777;-78
2023/05/05 00:32:56;;;;;;;9.32;4.00;;;;;;;;;;4955387;28;93207;-78
2023/05/05 00:35:22;;;;;;;7.40;4.25;;;;;;;;;;4952993;28;91730;-79
2023/05/05 00:37:49;;;;;;;7.50;3.22;;;;;;;;;;4952303;28;93469;-78
2023/05/05 00:40:17;;;;;;;8.27;3.67;;;;;;;;;;4951826;28;93111;-78
2023/05/05 00:42:44;;;;;;;8.18;3.88;;;;;;;;;;4947908;28;94997;-79
2023/05/05 00:45:12;;;;;;;7.20;3.72;;;;;;;;;;4939630;28;95146;-79
2023/05/05 00:47:40;;;;;;;8.38;3.67;;;;;;;;;;4944868;28;96918;-79
2023/05/05 00:50:10;;;;;;;7.95;4.03;;;;;;;;;;4952107;28;92582;-79
2023/05/05 00:52:37;;;;;;;9.60;4.07;;;;;;;;;;4948916;28;93938;-79
2023/05/05 00:55:04;;;;;;;8.82;4.07;;;;;;;;;;4953091;28;93116;-79
2023/05/05 00:57:31;;;;;;;7.90;3.80;;;;;;;;;;4950991;28;94866;-79
2023/05/05 00:59:58;;;;;;;6.35;3.53;;;;;;;;;;4949937;28;93976;-79
2023/05/05 01:02:25;;;;;;;7.90;4.05;;;;;;;;;;4951800;28;92988;-79
2023/05/05 01:04:52;;;;;;;7.15;3.88;;;;;;;;;;4951540;28;93319;-79
2023/05/05 01:07:18;;;;;;;10.02;4.72;;;;;;;;;;4948375;28;95478;-79
2023/05/05 01:09:50;;;;;;;7.22;3.80;;;;;;;;;;4958688;28;92533;-79
2023/05/05 01:12:42;;;;;;;9.13;3.85;;;;;;;;;;4947943;28;92812;-79
2023/05/05 01:15:16;;;;;;;9.73;4.60;;;;;;;;;;4950035;28;96154;-79
2023/05/05 01:17:51;;;;;;;10.55;4.90;;;;;;;;;;4955118;28;92945;-78
2023/05/05 01:20:38;;;;;;;12.30;5.18;;;;;;;;;;4949359;28;93561;-78
2023/05/05 01:23:05;;;;;;;11.55;4.43;;;;;;;;;;4950419;28;94472;-78
2023/05/05 01:25:51;;;;;;;9.27;4.85;;;;;;;;;;4951348;28;92610;-78
2023/05/05 01:28:17;;;;;;;9.00;4.40;;;;;;;;;;4951508;28;92785;-78
2023/05/05 01:31:08;;;;;;;8.02;4.38;;;;;;;;;;4951075;28;92861;-78
2023/05/05 01:33:37;;;;;;;8.35;3.95;;;;;;;;;;4969440;28;94979;-78
2023/05/05 01:36:08;;;;;;;10.55;4.57;;;;;;;;;;4967825;28;96627;-79
2023/05/05 01:38:39;;;;;;;11.20;4.45;;;;;;;;;;4971244;28;92383;-78
2023/05/05 01:41:14;;;;;;;10.60;5.82;;;;;;;;;;4956331;28;92511;-78
2023/05/05 01:43:44;;;;;;;10.88;4.47;;;;;;;;;;4975563;28;92809;-79
2023/05/05 01:46:11;;;;;;;8.55;4.10;;;;;;;;;;4970948;28;92969;-79
2023/05/05 01:48:38;;;;;;;8.63;4.57;;;;;;;;;;4956583;28;93130;-79
2023/05/05 01:51:08;;;;;;;8.82;4.38;;;;;;;;;;4950698;28;92112;-80
2023/05/05 01:53:35;;;;;;;8.95;4.70;;;;;;;;;;4952774;28;92560;-79
2023/05/05 01:56:02;;;;;;;10.13;5.40;;;;;;;;;;4954128;28;93217;-80
2023/05/05 01:58:29;;;;;;;9.82;4.88;;;;;;;;;;4951948;28;94894;-79
2023/05/05 02:00:56;;;;;;;9.02;4.18;;;;;;;;;;4938156;28;96345;-79
2023/05/05 02:03:23;;;;;;;8.50;4.78;;;;;;;;;;4951172;28;92516;-79
2023/05/05 02:05:50;;;;;;;9.73;4.40;;;;;;;;;;4951130;28;95515;-79
2023/05/05 02:08:17;;;;;;;8.95;4.30;;;;;;;;;;4952325;28;93203;-79
2023/05/05 02:10:46;;;;;;;8.13;4.10;;;;;;;;;;4949599;28;96907;-79
2023/05/05 02:13:14;;;;;;;7.95;4.13;;;;;;;;;;4951196;28;92612;-80
2023/05/05 02:15:42;;;;;;;7.90;3.40;;;;;;;;;;4950158;28;92227;-79
2023/05/05 02:18:09;;;;;;;8.20;3.78;;;;;;;;;;4951497;28;92542;-79
2023/05/05 02:20:39;;;;;;;12.80;4.72;;;;;;;;;;4950123;28;92743;-79
2023/05/05 02:23:06;;;;;;;15.52;4.95;;;;;;;;;;4952416;28;95336;-79
2023/05/05 02:25:44;;;;;;;8.48;4.38;;;;;;;;;;4949918;28;95271;-79
2023/05/05 02:28:17;;;;;;;8.02;4.10;;;;;;;;;;4951020;28;93401;-79
2023/05/05 02:30:45;;;;;;;9.77;3.90;;;;;;;;;;4951105;28;93292;-79
2023/05/05 02:33:15;;;;;;;8.00;3.58;;;;;;;;;;4933386;28;95182;-79
2023/05/05 02:35:44;;;;;;;8.20;3.70;;;;;;;;;;4931932;28;95385;-79
2023/05/05 02:38:16;;;;;;;7.38;3.60;;;;;;;;;;4957979;28;92488;-79
2023/05/05 02:40:47;;;;;;;7.72;3.90;;;;;;;;;;4936066;28;99356;-79
2023/05/05 02:43:16;;;;;;;7.60;3.55;;;;;;;;;;4959085;28;95477;-79
2023/05/05 02:45:44;;;;;;;7.45;3.70;;;;;;;;;;4957989;28;93013;-79
2023/05/05 02:48:13;;;;;;;7.25;3.55;;;;;;;;;;4966516;28;98603;-79
2023/05/05 02:50:39;;;;;;;7.97;3.92;;;;;;;;;;4969249;28;93222;-78
2023/05/05 02:53:23;;;;;;;7.30;3.45;;;;;;;;;;4957209;28;94049;-78
2023/05/05 02:55:51;;;;;;;7.43;3.42;;;;;;;;;;4965831;28;94115;-79
2023/05/05 02:58:29;;;;;;;8.07;3.45;;;;;;;;;;4938107;28;92569;-79
2023/05/05 03:01:04;;;;;;;17.58;4.25;;;;;;;;;;4966028;28;93092;-79
2023/05/05 03:03:38;;;;;;;8.15;4.03;;;;;;;;;;4961725;28;95949;-78
2023/05/05 03:06:12;;;;;;;8.45;4.10;;;;;;;;;;4962160;28;91964;-79
2023/05/05 03:08:43;;;;;;;7.80;3.88;;;;;;;;;;4970106;28;94577;-78
2023/05/05 03:11:15;;;;;;;7.18;3.40;;;;;;;;;;4967727;28;92510;-79
2023/05/05 03:13:42;;;;;;;8.20;4.00;;;;;;;;;;4953745;28;94841;-79
2023/05/05 03:16:15;;;;;;;8.73;3.70;;;;;;;;;;4963469;28;93985;-79
2023/05/05 03:18:44;;;;;;;7.88;3.35;;;;;;;;;;4968927;28;92655;-78
2023/05/05 03:21:11;;;;;;;8.18;3.85;;;;;;;;;;4968886;28;95875;-79
2023/05/05 03:23:40;;;;;;;7.50;3.45;;;;;;;;;;4968738;28;95537;-78
2023/05/05 03:26:15;;;;;;;8.15;4.15;;;;;;;;;;4968390;28;92558;-79
2023/05/05 03:28:42;;;;;;;7.72;3.55;;;;;;;;;;4967958;28;95407;-80
2023/05/05 03:31:16;;;;;;;8.00;3.80;;;;;;;;;;4943984;28;94136;-79
2023/05/05 03:33:47;;;;;;;9.35;4.35;;;;;;;;;;4955558;28;94682;-78
2023/05/05 03:36:14;;;;;;;7.38;3.17;;;;;;;;;;4948741;28;96127;-79
2023/05/05 03:38:40;;;;;;;6.93;3.42;;;;;;;;;;4930044;28;95695;-78
2023/05/05 03:41:07;;;;;;;7.40;3.30;;;;;;;;;;4948782;28;96229;-79
2023/05/05 03:43:34;;;;;;;7.78;3.40;;;;;;;;;;4949192;28;95553;-79
2023/05/05 03:46:01;;;;;;;9.00;3.60;;;;;;;;;;4948363;28;93027;-78
2023/05/05 03:48:27;;;;;;;10.23;3.75;;;;;;;;;;4947766;28;93774;-78
2023/05/05 03:50:54;;;;;;;9.13;4.03;;;;;;;;;;4951392;28;95724;-79
2023/05/05 03:53:23;;;;;;;9.35;3.80;;;;;;;;;;4949787;28;92778;-79
2023/05/05 03:55:49;;;;;;;7.65;4.00;;;;;;;;;;4932143;28;95864;-79
2023/05/05 03:58:16;;;;;;;8.95;4.47;;;;;;;;;;4950736;28;92446;-79
2023/05/05 04:00:43;;;;;;;7.70;4.03;;;;;;;;;;4950256;28;95204;-78
2023/05/05 04:03:10;;;;;;;7.38;3.67;;;;;;;;;;4950255;28;95470;-79
2023/05/05 04:05:37;;;;;;;7.07;3.20;;;;;;;;;;4953808;28;92586;-79
2023/05/05 04:08:04;;;;;;;9.43;4.15;;;;;;;;;;4959720;28;92884;-79
2023/05/05 04:10:31;;;;;;;7.55;3.80;;;;;;;;;;4950834;28;95875;-79
2023/05/05 04:13:01;;;;;;;8.55;3.83;;;;;;;;;;4960921;28;92453;-80
2023/05/05 04:15:29;;;;;;;8.10;3.38;;;;;;;;;;4960758;28;95531;-80
2023/05/05 04:17:56;;;;;;;9.18;3.67;;;;;;;;;;4964280;28;92588;-80
2023/05/05 04:20:23;;;;;;;8.82;3.60;;;;;;;;;;4951793;28;95892;-79
2023/05/05 04:22:50;;;;;;;7.35;3.58;;;;;;;;;;4970291;28;95377;-80
2023/05/05 04:25:19;;;;;;;8.55;3.92;;;;;;;;;;4959114;28;92521;-81
2023/05/05 04:27:47;;;;;;;8.82;3.60;;;;;;;;;;4957770;28;94855;-80
2023/05/05 04:30:14;;;;;;;7.85;2.95;;;;;;;;;;4954076;28;96150;-79
2023/05/05 04:32:42;;;;;;;8.75;3.90;;;;;;;;;;4971208;28;93144;-79
2023/05/05 04:35:09;;;;;;;8.50;3.90;;;;;;;;;;4955143;28;95623;-79
2023/05/05 04:37:36;;;;;;;7.53;2.88;;;;;;;;;;4949669;28;92773;-79
2023/05/05 04:40:04;;;;;;;6.35;3.05;;;;;;;;;;4950260;28;95484;-79
2023/05/05 04:42:33;;;;;;;7.05;3.58;;;;;;;;;;4944877;28;95497;-79
2023/05/05 04:45:00;;;;;;;7.90;3.25;;;;;;;;;;4950903;28;91711;-79
2023/05/05 04:47:28;;;;;;;7.88;2.88;;;;;;;;;;4951972;28;92465;-79
2023/05/05 04:49:54;;;;;;;6.57;2.63;;;;;;;;;;4952586;28;94299;-79
2023/05/05 04:52:21;;;;;;;8.00;3.00;;;;;;;;;;4947928;28;94892;-79
2023/05/05 04:54:48;;;;;;;7.00;3.17;;;;;;;;;;4950227;28;96320;-80
2023/05/05 04:57:14;;;;;;;7.93;2.90;;;;;;;;;;4954864;28;93055;-80
2023/05/05 04:59:41;;;;;;;6.78;2.95;;;;;;;;;;4951138;28;92884;-80
2023/05/05 05:02:07;;;;;;;7.30;2.70;;;;;;;;;;4949681;28;95937;-80
2023/05/05 05:04:34;;;;;;;9.32;4.00;;;;;;;;;;4948867;28;92732;-80
2023/05/05 05:07:00;;;;;;;8.02;3.75;;;;;;;;;;4950410;28;95640;-80
2023/05/05 05:09:27;;;;;;;9.60;3.20;;;;;;;;;;4949445;28;94952;-80
2023/05/05 05:11:57;;;;;;;8.10;2.85;;;;;;;;;;4949560;28;92567;-80
2023/05/05 05:14:24;;;;;;;6.78;2.95;;;;;;;;;;4951406;28;92818;-80
2023/05/05 05:16:51;;;;;;;6.18;2.40;;;;;;;;;;4950425;28;95773;-80
2023/05/05 05:19:20;;;;;;;10.50;2.90;;;;;;;;;;4937771;28;92781;-80
2023/05/05 05:21:47;;;;;;;8.27;3.22;;;;;;;;;;4949910;28;95479;-80
2023/05/05 05:24:13;;;;;;;8.50;2.90;;;;;;;;;;4945563;28;92477;-80
2023/05/05 05:26:42;;;;;;;7.72;2.65;;;;;;;;;;4949103;28;93088;-79
2023/05/05 05:29:08;;;;;;;6.90;3.30;;;;;;;;;;4949920;28;95592;-79
2023/05/05 05:31:35;;;;;;;7.22;2.70;;;;;;;;;;4950094;28;92538;-79
2023/05/05 05:34:02;;;;;;;6.90;2.55;;;;;;;;;;4949298;28;96234;-80
2023/05/05 05:36:28;;;;;;;7.10;2.80;;;;;;;;;;4949504;28;95767;-80
2023/05/05 05:38:55;;;;;;;7.88;2.63;;;;;;;;;;4948288;28;92516;-79
2023/05/05 05:41:22;;;;;;;7.10;3.42;;;;;;;;;;4954295;28;95506;-80
2023/05/05 05:43:49;;;;;;;10.32;4.10;;;;;;;;;;4935419;28;92916;-79
2023/05/05 05:46:16;;;;;;;7.40;2.90;;;;;;;;;;4929581;28;92811;-79
2023/05/05 05:48:43;;;;;;;7.88;2.78;;;;;;;;;;4970024;28;94045;-79
2023/05/05 05:51:09;;;;;;;6.65;3.08;;;;;;;;;;4974058;28;92507;-79
2023/05/05 05:53:36;;;;;;;6.95;3.00;;;;;;;;;;4971625;28;95742;-79
2023/05/05 05:56:03;;;;;;;9.88;3.40;;;;;;;;;;4974507;28;94563;-78
2023/05/05 05:58:29;;;;;;;10.68;4.05;;;;;;;;;;4960847;28;91721;-79
2023/05/05 06:00:58;;;;;;;9.18;4.20;;;;;;;;;;4963025;28;92416;-79
2023/05/05 06:03:25;;;;;;;7.00;2.97;;;;;;;;;;4960068;28;92353;-79
2023/05/05 06:05:52;;;;;;;7.85;3.90;;;;;;;;;;4959484;28;94794;-79
2023/05/05 06:08:19;;;;;;;9.32;4.25;;;;;;;;;;4961384;28;94311;-80
2023/05/05 06:10:51;;;;;;;9.15;3.75;;;;;;;;;;4957631;28;92572;-80
2023/05/05 06:13:20;;;;;;;13.20;5.47;;;;;;;;;;4955785;28;95549;-79
2023/05/05 06:15:49;;;;;;;8.77;3.78;;;;;;;;;;4953008;28;94367;-78
2023/05/05 06:18:16;;;;;;;8.80;4.07;;;;;;;;;;4958716;28;93080;-79
2023/05/05 06:20:43;;;;;;;11.48;4.50;;;;;;;;;;4935234;28;94616;-78
2023/05/05 06:23:11;;;;;;;9.52;4.25;;;;;;;;;;4957760;28;94785;-78
2023/05/05 06:25:42;;;;;;;10.77;5.40;;;;;;;;;;4957747;28;94010;-78
2023/05/05 06:28:09;;;;;;;13.25;5.75;;;;;;;;;;4961677;28;94640;-79
2023/05/05 06:30:35;;;;;;;12.68;5.68;;;;;;;;;;4966062;28;95400;-79
2023/05/05 06:33:02;;;;;;;9.88;5.22;;;;;;;;;;4953018;28;93872;-79
2023/05/05 06:35:29;;;;;;;13.18;5.95;;;;;;;;;;4961998;28;93021;-78
2023/05/05 06:37:55;;;;;;;12.30;5.55;;;;;;;;;;4975891;28;93277;-79
2023/05/05 06:40:22;;;;;;;9.70;3.95;;;;;;;;;;4985389;28;92288;-79
2023/05/05 06:42:48;;;;;;;13.68;6.07;;;;;;;;;;4956688;28;92451;-78
2023/05/05 06:45:20;;;;;;;11.10;5.22;;;;;;;;;;4979529;28;92419;-78
2023/05/05 06:47:47;;;;;;;10.35;5.10;;;;;;;;;;4966433;28;92204;-78
2023/05/05 06:50:14;;;;;;;;;;;;;;;;;;4972560;28;94143;-78
2023/05/05 06:52:41;;;;;;;12.85;4.90;;;;;;;;;;4972656;28;92946;-79
2023/05/05 06:55:08;;;;;;;10.55;4.28;;;;;;;;;;4968481;28;95395;-78
2023/05/05 06:57:35;;;;;;;12.68;5.50;;;;;;;;;;4962792;28;94333;-78
2023/05/05 07:00:04;;;;;;;10.93;4.75;;;;;;;;;;4970658;28;92432;-78
2023/05/05 07:02:32;;;;;;;9.85;4.50;;;;;;;;;;4961011;28;93934;-78
2023/05/05 07:04:59;;;;;;;11.60;4.65;;;;;;;;;;4963910;28;92497;-79
2023/05/05 07:07:25;;;;;;;10.15;4.40;;;;;;;;;;4960811;28;93040;-79
2023/05/05 07:09:52;;;;;;;12.75;5.35;;;;;;;;;;4948779;28;92742;-78
2023/05/05 07:12:19;;;;;;;13.85;4.88;;;;;;;;;;4961253;28;91800;-78
2023/05/05 07:14:45;;;;;;;10.60;4.85;;;;;;;;;;4949591;28;93140;-78
2023/05/05 07:17:12;;;;;;;11.40;4.68;;;;;;;;;;4950126;28;92937;-78
2023/05/05 07:19:38;;;;;;;10.27;4.32;;;;;;;;;;4947083;28;95174;-77
2023/05/05 07:22:05;;;;;;;11.38;4.75;;;;;;;;;;4948032;28;93028;-78
2023/05/05 07:24:31;;;;;;;8.95;3.78;;;;;;;;;;4948533;28;92822;-78
2023/05/05 07:26:58;;;;;;;9.23;3.72;;;;;;;;;;4949192;28;94163;-78
2023/05/05 07:29:24;;;;;;;10.27;3.58;;;;;;;;;;4952325;28;92844;-78
2023/05/05 07:31:51;;;;;;;9.05;3.65;;;;;;;;;;4957582;28;92881;-78
2023/05/05 07:34:18;;;;;;;10.10;4.55;;;;;;;;;;4953400;28;93804;-78
2023/05/05 07:36:44;;;;;;;9.60;4.75;;;;;;;;;;4967980;28;91885;-78
2023/05/05 07:39:13;;;;;;;8.50;3.85;;;;;;;;;;4968441;28;92491;-78
2023/05/05 07:41:41;;;;;;;8.77;3.83;;;;;;;;;;4956815;28;93199;-77
2023/05/05 07:44:07;;;;;;;9.25;4.47;;;;;;;;;;4961818;28;95186;-78
2023/05/05 07:46:43;;;;;;;10.73;4.70;;;;;;;;;;4965819;28;95149;-78
2023/05/05 07:49:10;;;;;;;11.65;4.03;;;;;;;;;;4972299;28;92844;-77
2023/05/05 07:51:36;;;;;;;12.13;3.70;;;;;;;;;;4962949;28;92494;-78
2023/05/05 07:54:03;;;;;;;10.13;4.38;;;;;;;;;;4962121;28;93226;-78
2023/05/05 07:56:30;;;;;;;9.30;3.47;;;;;;;;;;4961537;28;92574;-78
2023/05/05 07:58:56;;;;;;;9.38;4.40;;;;;;;;;;4946326;28;92730;-77
2023/05/05 08:01:23;;;;;;;13.93;4.93;;;;;;;;;;4948988;28;94097;-78
2023/05/05 08:03:50;;;;;;;11.25;3.80;;;;;;;;;;4948547;28;92505;-78
2023/05/05 08:06:20;;;;;;;10.63;3.88;;;;;;;;;;4946985;28;92717;-78
2023/05/05 08:08:48;;;;;;;9.82;3.92;;;;;;;;;;4944552;28;100637;-78
2023/05/05 08:11:14;;;;;;;9.90;3.65;;;;;;;;;;4951699;28;93250;-78
2023/05/05 08:13:41;;;;;;;11.02;4.80;;;;;;;;;;4944352;28;93226;-78
2023/05/05 08:16:08;;;;;;;11.43;5.43;;;;;;;;;;4949124;28;92566;-78
2023/05/05 08:18:36;;;;;;;10.65;3.88;;;;;;;;;;4928910;28;93981;-77
2023/05/05 08:21:04;;;;;;;12.57;5.45;;;;;;;;;;4928615;28;93602;-77
2023/05/05 08:23:30;;;;;;;12.50;5.70;;;;;;;;;;4943154;28;92446;-77
2023/05/05 08:25:57;;;;;;;10.98;4.53;;;;;;;;;;4949493;28;92833;-77
2023/05/05 08:28:23;;;;;;;9.35;3.90;;;;;;;;;;4946775;28;92985;-78
2023/05/05 08:30:50;;;;;;;10.57;4.40;;;;;;;;;;4947858;28;92510;-77
2023/05/05 08:33:17;;;;;;;9.32;2.70;;;;;;;;;;4949955;28;94868;-78
2023/05/05 08:35:43;;;;;;;9.48;2.50;;;;;;;;;;4948450;28;92367;-77
2023/05/05 08:38:10;;;;;;;9.93;3.78;;;;;;;;;;4948524;28;93455;-77
2023/05/05 08:40:38;;;;;;;11.40;4.50;;;;;;;;;;4946684;28;93576;-77
2023/05/05 08:43:04;;;;;;;13.32;4.90;;;;;;;;;;4948288;28;92454;-77
2023/05/05 08:45:31;;;;;;;12.32;5.60;;;;;;;;;;4950825;28;92811;-77
2023/05/05 08:48:02;;;;;;;8.52;3.72;;;;;;;;;;4951569;28;93235;-78
2023/05/05 08:50:29;;;;;;;8.65;3.63;;;;;;;;;;4951838;28;93169;-77
2023/05/05 08:53:16;;;;;;;8.52;3.17;;;;;;;;;;4950246;28;92838;-78
2023/05/05 08:55:48;;;;;;;7.60;2.45;;;;;;;;;;4946852;28;93210;-77
2023/05/05 08:58:17;;;;;;;8.85;2.85;;;;;;;;;;4948065;28;95342;-77
2023/05/05 09:00:44;;;;;;;9.13;2.85;;;;;;;;;;4947828;28;96611;-77
2023/05/05 09:03:11;;;;;;;10.05;2.80;;;;;;;;;;4949843;28;92516;-77
2023/05/05 09:05:38;;;;;;;7.88;2.55;;;;;;;;;;4949103;28;94045;-77
2023/05/05 09:08:07;;;;;;;6.53;2.33;;;;;;;;;;4950831;28;93096;-76
2023/05/05 09:10:34;;;;;;;5.90;1.83;;;;;;;;;;4950121;28;93000;-77
2023/05/05 09:13:00;;;;;;;;;;;;;;;;;;4955281;28;94371;-77
2023/05/05 09:15:27;;;;;;;5.60;1.85;;;;;;;;;;4964233;28;93561;-77
2023/05/05 09:17:56;;;;;;;12.77;5.60;;;;;;;;;;4968168;28;92554;-76
2023/05/05 09:20:23;;;;;;;10.38;3.70;;;;;;;;;;4967224;28;93220;-77
2023/05/05 09:22:50;;;;;;;11.18;4.93;;;;;;;;;;4948732;28;95732;-76
2023/05/05 09:25:17;;;;;;;12.48;5.97;;;;;;;;;;4949949;28;96321;-76
2023/05/05 09:27:44;;;;;;;11.43;5.45;;;;;;;;;;4950468;28;93028;-77
2023/05/05 09:30:13;;;;;;;10.15;5.20;;;;;;;;;;4948247;28;92502;-76
2023/05/05 09:32:43;;;;;;;10.82;4.30;;;;;;;;;;4947656;28;92908;-76
2023/05/05 09:35:09;;;;;;;10.68;4.75;;;;;;;;;;4950188;28;93061;-76
2023/05/05 09:37:37;;;;;;;9.68;3.88;;;;;;;;;;4948631;28;92987;-76
2023/05/05 09:40:04;;;;;;;9.30;4.00;;;;;;;;;;4953974;28;93188;-77
2023/05/05 09:42:31;;;;;;;;;;;;;;;;;;4950179;28;92572;-77
2023/05/05 09:44:57;;;;;;;8.32;3.38;;;;;;;;;;4949269;28;118859;-76
2023/05/05 09:47:35;;;;;;;9.30;2.75;;;;;;;;;;4947846;28;95568;-76
2023/05/05 09:50:03;;;;;;;8.27;3.13;;;;;;;;;;4950562;28;95612;-78
2023/05/05 09:52:30;;;;;;;10.63;3.50;;;;;;;;;;4930474;28;94117;-78
2023/05/05 09:54:57;;;;;;;10.35;4.10;;;;;;;;;;4968332;28;93936;-78
2023/05/05 09:57:25;;;;;;;11.70;5.13;;;;;;;;;;4955229;28;93158;-84
2023/05/05 09:59:56;;;;;;;11.27;5.80;;;;;;;;;;4955868;28;92801;-77
2023/05/05 10:02:48;;;;;;;10.45;4.85;;;;;;;;;;4959738;28;92965;-77
2023/05/05 10:05:16;;;;;;;12.48;5.72;;;;;;;;;;4969411;28;93721;-77
2023/05/05 10:07:43;;;;;;;9.57;4.32;;;;;;;;;;4947867;28;94491;-76
2023/05/05 10:10:10;;;;;;;;;;;;;;;;;;4951235;28;92436;-77
2023/05/05 10:12:37;;;;;;;11.85;5.57;;;;;;;;;;4959336;28;95329;-76
2023/05/05 10:15:05;;;;;;;12.38;5.40;;;;;;;;;;4958211;28;92761;-78
2023/05/05 10:17:34;;;;;;;9.88;3.47;;;;;;;;;;4970049;28;93071;-78
2023/05/05 10:20:02;;;;;;;7.10;2.70;;;;;;;;;;4953857;28;94412;-78
2023/05/05 10:22:33;;;;;;;7.07;2.45;;;;;;;;;;4953073;28;93618;-78
2023/05/05 10:25:08;;;;;;;5.88;2.05;;;;;;;;;;4967233;28;92999;-77
2023/05/05 10:27:49;;;;;;;4.75;1.90;;;;;;;;;;4972105;28;93531;-77
2023/05/05 10:30:18;;;;;;;4.63;2.00;;;;;;;;;;4961521;28;91809;-78
2023/05/05 10:32:59;;;;;;;5.68;2.20;;;;;;;;;;4963541;28;99040;-78
2023/05/05 10:35:48;;;;;;;5.28;1.90;;;;;;;;;;4975222;28;92940;-78
2023/05/05 10:38:15;;;;;;;4.72;1.80;;;;;;;;;;4964413;28;95269;-78
2023/05/05 10:40:43;;;;;;;5.18;1.90;;;;;;;;;;4951797;28;95549;-78
2023/05/05 10:43:09;;;;;;;4.15;1.50;;;;;;;;;;4953811;28;92459;-78
2023/05/05 10:45:36;;;;;;;4.55;1.52;;;;;;;;;;4951647;28;92762;-80
2023/05/05 10:48:05;;;;;;;4.18;1.80;;;;;;;;;;4947461;28;94483;-78
2023/05/05 10:50:35;;;;;;;6.40;1.70;;;;;;;;;;4951705;28;92875;-77
2023/05/05 10:53:06;;;;;;;8.13;1.75;;;;;;;;;;4947740;28;94786;-77
2023/05/05 10:55:38;;;;;;;7.93;2.78;;;;;;;;;;4947541;28;94041;-76
2023/05/05 10:58:05;;;;;;;5.53;1.67;;;;;;;;;;4944905;28;92526;-76
2023/05/05 11:00:37;;;;;;;6.15;1.65;;;;;;;;;;4946441;28;92629;-76
2023/05/05 11:03:24;;;;;;;14.68;2.78;;;;;;;;;;4929832;28;96520;-81
2023/05/05 11:06:03;;;;;;;9.80;2.25;;;;;;;;;;4930799;28;93248;-77
2023/05/05 11:08:33;;;;;;;12.85;3.13;;;;;;;;;;4947225;28;94199;-78
2023/05/05 11:11:00;;;;;;;9.70;2.35;;;;;;;;;;4945970;28;92492;-77
2023/05/05 11:13:27;;;;;;;;;;;;;;;;;;4945142;28;93474;-78
2023/05/05 11:15:54;;;;;;;10.60;2.42;;;;;;;;;;4947050;28;113085;-78
2023/05/05 11:18:20;;;;;;;;;;;;;;;;;;4945098;28;92808;-77
2023/05/05 11:20:47;;;;;;;11.25;2.72;;;;;;;;;;4946198;28;113838;-78
2023/05/05 11:23:19;;;;;;;15.93;3.08;;;;;;;;;;4945385;28;93361;-78
2023/05/05 11:25:46;;;;;;;12.88;2.92;;;;;;;;;;4947072;28;92966;-78
2023/05/05 11:28:16;;;;;;;15.90;2.92;;;;;;;;;;4944352;28;95986;-78
2023/05/05 11:30:54;;;;;;;12.55;3.20;;;;;;;;;;4947923;28;93322;-78
2023/05/05 11:33:23;;;;;;;18.98;4.85;;;;;;;;;;4946268;28;93301;-78
2023/05/05 11:35:54;;;;;;;13.30;3.00;;;;;;;;;;4944859;28;93263;-78
2023/05/05 11:38:25;;;;;;;12.25;3.20;;;;;;;;;;4944091;28;92841;-78
2023/05/05 11:40:56;;;;;;;14.05;3.20;;;;;;;;;;4946441;28;93254;-78
2023/05/05 11:43:22;;;;;;;11.45;3.05;;;;;;;;;;4946452;28;92968;-78
2023/05/05 11:46:08;;;;;;;11.93;3.28;;;;;;;;;;4947194;28;92566;-78
2023/05/05 11:48:42;;;;;;;13.80;2.80;;;;;;;;;;4943915;28;92828;-78
2023/05/05 11:51:15;;;;;;;9.95;2.60;;;;;;;;;;4942711;28;93305;-78
2023/05/05 11:53:45;;;;;;;;;;;;;;;;;;4950120;28;95350;-78
2023/05/05 11:56:18;;;;;;;12.32;2.90;;;;;;;;;;4946457;28;93030;-78
2023/05/05 11:58:45;;;;;;;12.57;2.80;;;;;;;;;;4936336;28;94200;-77
2023/05/05 12:01:12;;;;;;;11.07;3.00;;;;;;;;;;4943641;28;94080;-77
2023/05/05 12:03:39;;;;;;;11.00;2.90;;;;;;;;;;4943306;28;95563;-78
2023/05/05 12:06:06;;;;;;;11.65;3.03;;;;;;;;;;4945046;28;92636;-78
2023/05/05 12:08:36;;;;;;;10.63;2.72;;;;;;;;;;4942412;28;93283;-77
2023/05/05 12:11:06;;;;;;;11.70;2.80;;;;;;;;;;4945092;28;93596;-77
2023/05/05 12:13:35;;;;;;;10.80;2.78;;;;;;;;;;4948368;28;92553;-77
2023/05/05 12:16:12;;;;;;;13.15;2.72;;;;;;;;;;4936315;28;93691;-77
2023/05/05 12:18:39;;;;;;;9.95;2.78;;;;;;;;;;4943972;28;96753;-76
2023/05/05 12:21:16;;;;;;;11.80;2.72;;;;;;;;;;4946322;28;95123;-77
2023/05/05 12:23:42;;;;;;;10.40;2.55;;;;;;;;;;4949051;28;94163;-76
2023/05/05 12:26:27;;;;;;;9.82;2.70;;;;;;;;;;4949959;28;92502;-76
2023/05/05 12:28:55;;;;;;;10.25;2.70;;;;;;;;;;4962048;28;97561;-77
2023/05/05 12:31:21;;;;;;;11.02;2.67;;;;;;;;;;4957978;28;93555;-78
2023/05/05 12:33:49;;;;;;;8.68;2.53;;;;;;;;;;4967878;28;92872;-77
2023/05/05 12:36:15;;;;;;;9.20;2.55;;;;;;;;;;4971493;28;94795;-77
2023/05/05 12:38:42;;;;;;;10.05;2.58;;;;;;;;;;4968243;28;92847;-77
2023/05/05 12:41:08;;;;;;;10.77;2.40;;;;;;;;;;4955203;28;93101;-77
2023/05/05 12:43:35;;;;;;;8.25;2.50;;;;;;;;;;4955836;28;97089;-76
2023/05/05 12:46:06;;;;;;;8.15;2.55;;;;;;;;;;4969145;28;92923;-79
2023/05/05 12:48:34;;;;;;;6.93;2.00;;;;;;;;;;4953789;28;93044;-75
2023/05/05 12:51:10;;;;;;;8.70;2.50;;;;;;;;;;4968506;28;93040;-77
2023/05/05 12:53:37;;;;;;;9.25;2.28;;;;;;;;;;4944401;28;93087;-75
2023/05/05 12:56:03;;;;;;;8.07;2.35;;;;;;;;;;4959406;28;94159;-76
2023/05/05 12:58:47;;;;;;;7.80;1.92;;;;;;;;;;4953307;28;93041;-76
2023/05/05 13:01:13;;;;;;;8.27;2.08;;;;;;;;;;4936697;28;94874;-76
2023/05/05 13:03:40;;;;;;;7.57;2.30;;;;;;;;;;4948573;28;93276;-76
2023/05/05 13:06:19;;;;;;;8.35;2.10;;;;;;;;;;4947613;28;92879;-76
2023/05/05 13:08:46;;;;;;;8.68;2.35;;;;;;;;;;4944480;28;95796;-76
2023/05/05 13:11:13;;;;;;;6.88;2.03;;;;;;;;;;4940427;28;95737;-76
2023/05/05 13:13:40;;;;;;;7.60;2.10;;;;;;;;;;4949591;28;92614;-76
2023/05/05 13:16:07;;;;;;;8.90;2.30;;;;;;;;;;4950726;28;94060;-76
2023/05/05 13:18:44;;;;;;;8.43;2.30;;;;;;;;;;4950326;28;93245;-76
2023/05/05 13:21:10;;;;;;;6.70;2.15;;;;;;;;;;4954150;28;92476;-76
2023/05/05 13:23:37;;;;;;;6.75;2.35;;;;;;;;;;4947785;28;92600;-76
2023/05/05 13:26:03;;;;;;;6.93;2.17;;;;;;;;;;4944195;28;91733;-75
2023/05/05 13:28:30;;;;;;;8.05;2.20;;;;;;;;;;4948968;28;93780;-75
2023/05/05 13:30:57;;;;;;;7.60;2.30;;;;;;;;;;4948268;28;93426;-76
2023/05/05 13:33:24;;;;;;;7.57;2.10;;;;;;;;;;4934086;28;96449;-76
2023/05/05 13:35:51;;;;;;;9.32;2.45;;;;;;;;;;4944509;28;95131;-77
2023/05/05 13:38:17;;;;;;;7.40;2.40;;;;;;;;;;4946559;28;94323;-76
2023/05/05 13:40:44;;;;;;;8.23;2.40;;;;;;;;;;4949748;28;92620;-77
2023/05/05 13:43:10;;;;;;;8.27;2.10;;;;;;;;;;4950681;28;92764;-77
2023/05/05 13:45:37;;;;;;;5.97;1.80;;;;;;;;;;4950036;28;93021;-77
2023/05/05 13:48:07;;;;;;;10.60;2.35;;;;;;;;;;4949887;28;93948;-76
2023/05/05 13:50:34;;;;;;;6.75;2.00;;;;;;;;;;4944463;28;93038;-77
2023/05/05 13:53:00;;;;;;;8.65;2.35;;;;;;;;;;4938247;28;94819;-77
2023/05/05 13:55:27;;;;;;;6.43;1.92;;;;;;;;;;4929882;28;94076;-77
2023/05/05 13:57:53;;;;;;;6.63;2.00;;;;;;;;;;4938777;28;96607;-77
2023/05/05 14:00:20;;;;;;;6.55;2.10;;;;;;;;;;4939377;28;92913;-77
2023/05/05 14:02:47;;;;;;;7.45;2.30;;;;;;;;;;4946387;28;94234;-77
2023/05/05 14:05:15;;;;;;;6.45;2.40;;;;;;;;;;4942924;28;95648;-77
2023/05/05 14:07:41;;;;;;;6.75;2.20;;;;;;;;;;4943744;28;93829;-77
2023/05/05 14:10:08;;;;;;;4.93;1.73;;;;;;;;;;4945864;28;93791;-77
2023/05/05 14:12:35;;;;;;;6.03;1.85;;;;;;;;;;4948206;28;92470;-78
2023/05/05 14:15:02;;;;;;;4.30;1.50;;;;;;;;;;4946881;28;91794;-78
2023/05/05 14:17:28;;;;;;;4.47;1.67;;;;;;;;;;4957462;28;98963;-77
2023/05/05 14:19:55;;;;;;;4.75;1.80;;;;;;;;;;4953050;28;92600;-77
2023/05/05 14:22:21;;;;;;;4.95;1.80;;;;;;;;;;4951815;28;94952;-77
2023/05/05 14:24:48;;;;;;;4.75;1.52;;;;;;;;;;4965224;28;93283;-76
2023/05/05 14:27:14;;;;;;;3.83;1.35;;;;;;;;;;4954187;28;94421;-76
2023/05/05 14:29:41;;;;;;;4.70;1.70;;;;;;;;;;4947785;28;95896;-76
2023/05/05 14:32:07;;;;;;;5.60;1.90;;;;;;;;;;4950447;28;92883;-77
2023/05/05 14:34:34;;;;;;;3.85;1.45;;;;;;;;;;4960776;28;93798;-77
2023/05/05 14:37:01;;;;;;;4.43;1.60;;;;;;;;;;4967301;28;93239;-76
2023/05/05 14:39:27;;;;;;;5.40;1.67;;;;;;;;;;4956228;28;92891;-76
2023/05/05 14:41:54;;;;;;;5.10;1.65;;;;;;;;;;4960371;28;92776;-76
2023/05/05 14:44:20;;;;;;;3.08;1.48;;;;;;;;;;4957336;28;93050;-76
2023/05/05 14:46:47;;;;;;;5.45;1.70;;;;;;;;;;4967107;28;96302;-76
2023/05/05 14:49:16;;;;;;;4.93;1.67;;;;;;;;;;4954317;28;92988;-76